Time;durP1;ratioP1;P1;durP2;ratioP2;P2;SDS_P1;SDS_P2;PMS_P1;PMS_P2;Temp;Humidity;BMP_temperature;BMP_pressure;BME280_temperature;BME280_humidity;BME280_pressure;Samples;Min_cycle;Max_cycle;Signal;HPM_P1;HPM_P2
2023/08/27 00:02:00;;;;;;;9.05;4.95;;;;;;;26.83;46.05;99577.97;41606068;28;20080;-84
2023/08/27 00:22:01;;;;;;;11.70;5.05;;;;;;;26.75;46.40;99596.59;41598839;28;20042;-76
2023/08/27 00:42:04;;;;;;;10.02;5.00;;;;;;;26.57;46.83;99580.91;41612062;28;20049;-77
2023/08/27 01:02:04;;;;;;;;;;;;;;;26.81;46.65;99598.56;41621942;28;20461;-77
2023/08/27 01:22:04;;;;;;;8.15;4.50;;;;;;;26.58;46.87;99576.44;41605045;28;19921;-77
2023/08/27 01:42:05;;;;;;;7.53;5.13;;;;;;;26.52;47.84;99593.88;41540738;28;20041;-79
2023/08/27 02:02:05;;;;;;;10.02;5.03;;;;;;;26.32;48.02;99599.59;41592625;28;20073;-77
2023/08/27 02:22:06;;;;;;;10.50;5.45;;;;;;;26.20;48.93;99608.94;41591975;28;20065;-77
2023/08/27 02:42:07;;;;;;;8.98;5.13;;;;;;;25.95;48.97;99582.47;41578256;28;20045;-79
2023/08/27 03:02:07;;;;;;;8.15;5.90;;;;;;;26.11;51.95;99600.19;41572077;28;20037;-79
2023/08/27 03:22:07;;;;;;;6.95;5.38;;;;;;;25.64;54.87;99585.00;41570691;28;20092;-79
2023/08/27 03:42:08;;;;;;;4.90;4.13;;;;;;;25.72;54.70;99633.53;41580699;28;20042;-76
2023/08/27 04:02:08;;;;;;;6.80;3.92;;;;;;;25.60;54.63;99636.69;41567742;28;20042;-78
2023/08/27 04:22:09;;;;;;;3.97;3.30;;;;;;;25.13;54.75;99636.31;41617202;28;20042;-75
2023/08/27 04:42:09;;;;;;;4.47;3.30;;;;;;;25.18;55.20;99636.66;41664352;28;20076;-76
2023/08/27 05:02:11;;;;;;;4.50;2.83;;;;;;;25.50;54.73;99668.66;41648424;28;20524;-78
2023/08/27 05:22:11;;;;;;;3.58;2.70;;;;;;;25.49;54.84;99691.72;41579773;28;20034;-73
2023/08/27 05:42:11;;;;;;;5.78;3.05;;;;;;;25.51;55.34;99679.13;41572459;28;20029;-70
2023/08/27 06:02:13;;;;;;;4.10;3.13;;;;;;;25.61;54.69;99657.75;41583100;28;20033;-71
2023/08/27 06:22:14;;;;;;;5.90;3.55;;;;;;;25.84;54.82;99628.75;41578661;28;20045;-73
2023/08/27 06:42:15;;;;;;;7.72;4.40;;;;;;;26.24;54.62;99646.59;41581762;28;20049;-77
2023/08/27 07:02:16;;;;;;;9.45;5.60;;;;;;;26.85;54.28;99646.84;41596633;28;20052;-77
2023/08/27 07:22:16;;;;;;;8.80;6.00;;;;;;;26.62;55.32;99641.47;41571797;28;20068;-75
2023/08/27 07:42:17;;;;;;;8.10;5.65;;;;;;;27.24;53.55;99630.00;41542564;28;20041;-74
2023/08/27 08:02:18;;;;;;;15.23;6.13;;;;;;;27.52;54.17;99604.75;41601324;28;20037;-74
2023/08/27 08:22:18;;;;;;;7.82;5.38;;;;;;;27.58;53.09;99601.34;41612168;28;20038;-75
2023/08/27 08:42:28;;;;;;;9.75;5.70;;;;;;;27.62;52.92;99579.53;41655799;28;20484;-75
2023/08/27 09:02:30;;;;;;;7.05;5.50;;;;;;;27.65;52.96;99581.00;41663157;28;20049;-76
2023/08/27 09:22:31;;;;;;;5.60;5.05;;;;;;;27.74;52.44;99585.22;41654120;28;20047;-75
2023/08/27 09:42:32;;;;;;;5.72;4.95;;;;;;;27.57;52.54;99519.91;41659379;28;20057;-75
2023/08/27 10:02:35;;;;;;;6.97;5.65;;;;;;;27.87;52.47;99568.66;41649798;28;20498;-75
2023/08/27 10:22:36;;;;;;;6.10;5.32;;;;;;;27.83;52.21;99519.47;41629882;28;20099;-78
2023/08/27 10:42:37;;;;;;;5.97;5.15;;;;;;;28.12;51.86;99525.81;41609956;28;20042;-76
2023/08/27 11:03:13;;;;;;;6.90;5.40;;;;;;;28.27;51.88;99499.16;41602799;28;20038;-76
2023/08/27 11:23:13;;;;;;;6.72;5.50;;;;;;;28.38;51.64;99500.50;41583620;28;20053;-76
2023/08/27 11:43:24;;;;;;;5.47;4.90;;;;;;;28.30;51.59;99460.69;41598439;28;20076;-76
2023/08/27 12:03:25;;;;;;;5.57;4.97;;;;;;;28.51;51.22;99463.34;41598940;28;20041;-76
2023/08/27 12:23:27;;;;;;;5.50;5.00;;;;;;;28.55;51.10;99426.53;41567331;28;20057;-77
2023/08/27 12:43:28;;;;;;;4.90;4.47;;;;;;;28.75;50.78;99432.06;41568091;28;20042;-76
2023/08/27 13:03:29;;;;;;;8.07;4.80;;;;;;;28.84;50.42;99398.09;41555703;28;20518;-75
2023/08/27 13:23:30;;;;;;;12.18;5.13;;;;;;;28.99;52.14;99404.16;41529761;28;20107;-74
2023/08/27 13:43:31;;;;;;;8.85;5.68;;;;;;;29.31;52.87;99407.25;41555486;28;20049;-73
2023/08/27 14:03:33;;;;;;;7.20;5.50;;;;;;;28.90;54.09;99387.47;41586227;28;20045;-77
2023/08/27 14:23:34;;;;;;;5.25;4.75;;;;;;;28.70;54.01;99312.75;41606079;28;20054;-75
2023/08/27 14:43:36;;;;;;;6.53;4.97;;;;;;;28.17;53.94;99192.56;41629126;28;20049;-74
2023/08/27 15:03:37;;;;;;;9.85;5.88;;;;;;;30.49;51.94;99344.81;41523112;28;21267;-78
2023/08/27 15:23:37;;;;;;;;;;;;;;;30.56;54.71;99338.63;41508461;28;20062;-76
2023/08/27 15:43:40;;;;;;;;;;;;;;;30.70;55.25;99345.63;41535121;28;19925;-75
2023/08/27 16:03:42;;;;;;;9.88;7.78;;;;;;;30.51;55.75;99299.19;41540756;28;19925;-75
2023/08/27 16:23:45;;;;;;;11.10;8.48;;;;;;;30.84;45.34;99317.00;41616182;28;20458;-79
2023/08/27 16:43:46;;;;;;;12.82;8.45;;;;;;;30.49;48.40;99307.41;41605476;28;20049;-76
2023/08/27 17:03:47;;;;;;;9.73;8.27;;;;;;;29.99;49.40;99278.44;41596379;28;20080;-78
2023/08/27 17:23:52;;;;;;;9.48;8.32;;;;;;;30.07;48.74;99316.63;41625661;28;20049;-79
2023/08/27 17:43:53;;;;;;;12.85;8.55;;;;;;;29.98;48.98;99316.81;41572154;28;20052;-78
2023/08/27 18:03:53;;;;;;;;;;;;;;;30.01;46.96;99345.75;41568031;28;20061;-78
2023/08/27 18:23:54;;;;;;;14.67;9.80;;;;;;;29.62;45.04;99317.13;41567272;28;19971;-80
2023/08/27 18:43:55;;;;;;;13.85;10.38;;;;;;;29.87;45.07;99355.56;41574394;28;20345;-77
2023/08/27 19:03:56;;;;;;;;;;;;;;;29.82;44.87;99365.19;41544374;28;20049;-76
2023/08/27 19:23:57;;;;;;;14.27;11.00;;;;;;;29.70;45.05;99363.13;41549496;28;20324;-78
2023/08/27 19:44:00;;;;;;;17.88;11.95;;;;;;;29.67;44.98;99347.50;41551530;28;20038;-77
2023/08/27 20:04:01;;;;;;;14.82;11.32;;;;;;;29.30;46.04;99359.47;41556032;28;20087;-75
2023/08/27 20:24:03;;;;;;;18.27;11.52;;;;;;;28.13;48.38;99349.13;41527555;28;20060;-79
2023/08/27 20:44:04;;;;;;;16.90;11.93;;;;;;;28.14;48.98;99384.56;41560486;28;20105;-78
2023/08/27 21:04:06;;;;;;;16.33;12.00;;;;;;;28.20;48.59;99387.28;41579217;28;20172;-78
2023/08/27 21:24:07;;;;;;;17.20;11.88;;;;;;;27.93;49.93;99402.13;41551096;28;20514;-76
2023/08/27 21:44:08;;;;;;;17.80;12.75;;;;;;;27.75;50.53;99397.22;41565435;28;20041;-76
2023/08/27 22:04:08;;;;;;;19.00;12.23;;;;;;;27.47;51.76;99393.38;41454333;28;20042;-76
2023/08/27 22:24:09;;;;;;;16.83;11.63;;;;;;;27.27;52.34;99403.72;41568278;28;20128;-75
2023/08/27 22:44:10;;;;;;;16.23;11.70;;;;;;;27.02;52.48;99384.56;41578132;28;20524;-75
2023/08/27 23:04:11;;;;;;;15.00;11.82;;;;;;;26.99;54.01;99414.16;41569942;28;20042;-76
2023/08/27 23:24:11;;;;;;;18.30;12.75;;;;;;;26.95;54.07;99397.75;41552478;28;20063;-75
2023/08/27 23:44:11;;;;;;;18.83;12.40;;;;;;;26.79;54.23;99392.59;41481870;28;20160;-76
